sensor_id;sensor_type;location;lat;lon;timestamp;P1;durP1;ratioP1;P2;durP2;ratioP2
70967;SDS011;58629;48.808;8.820;2023-12-20T00:01:18;10.17;;;3.43;;
70967;SDS011;58629;48.808;8.820;2023-12-20T00:03:43;8.23;;;3.13;;
70967;SDS011;58629;48.808;8.820;2023-12-20T00:06:08;3.93;;;1.90;;
70967;SDS011;58629;48.808;8.820;2023-12-20T00:08:34;3.92;;;1.30;;
70967;SDS011;58629;48.808;8.820;2023-12-20T00:11:00;2.00;;;1.20;;
70967;SDS011;58629;48.808;8.820;2023-12-20T00:13:25;2.75;;;1.02;;
70967;SDS011;58629;48.808;8.820;2023-12-20T00:15:51;2.28;;;1.20;;
70967;SDS011;58629;48.808;8.820;2023-12-20T00:18:17;1.70;;;1.00;;
70967;SDS011;58629;48.808;8.820;2023-12-20T00:20:42;2.50;;;1.20;;
70967;SDS011;58629;48.808;8.820;2023-12-20T00:23:07;3.28;;;1.70;;
70967;SDS011;58629;48.808;8.820;2023-12-20T00:25:33;2.93;;;1.47;;
70967;SDS011;58629;48.808;8.820;2023-12-20T00:28:00;3.50;;;1.40;;
70967;SDS011;58629;48.808;8.820;2023-12-20T00:30:25;2.30;;;1.20;;
70967;SDS011;58629;48.808;8.820;2023-12-20T00:32:50;2.40;;;1.30;;
70967;SDS011;58629;48.808;8.820;2023-12-20T00:35:16;2.70;;;1.30;;
70967;SDS011;58629;48.808;8.820;2023-12-20T00:37:42;2.10;;;1.30;;
70967;SDS011;58629;48.808;8.820;2023-12-20T00:40:08;2.80;;;1.60;;
70967;SDS011;58629;48.808;8.820;2023-12-20T00:42:34;3.33;;;1.55;;
70967;SDS011;58629;48.808;8.820;2023-12-20T00:45:01;2.95;;;1.42;;
70967;SDS011;58629;48.808;8.820;2023-12-20T00:47:26;2.87;;;1.50;;
70967;SDS011;58629;48.808;8.820;2023-12-20T00:49:51;2.20;;;1.20;;
70967;SDS011;58629;48.808;8.820;2023-12-20T00:52:17;2.13;;;1.20;;
70967;SDS011;58629;48.808;8.820;2023-12-20T00:54:43;2.10;;;1.20;;
70967;SDS011;58629;48.808;8.820;2023-12-20T00:57:09;1.77;;;1.10;;
70967;SDS011;58629;48.808;8.820;2023-12-20T00:59:34;2.60;;;1.20;;
70967;SDS011;58629;48.808;8.820;2023-12-20T01:02:00;2.63;;;1.20;;
70967;SDS011;58629;48.808;8.820;2023-12-20T01:04:25;2.03;;;0.97;;
70967;SDS011;58629;48.808;8.820;2023-12-20T01:06:51;0.60;;;0.30;;
70967;SDS011;58629;48.808;8.820;2023-12-20T01:09:17;0.80;;;0.40;;
70967;SDS011;58629;48.808;8.820;2023-12-20T01:11:43;0.80;;;0.40;;
70967;SDS011;58629;48.808;8.820;2023-12-20T01:14:09;0.97;;;0.10;;
70967;SDS011;58629;48.808;8.820;2023-12-20T01:16:34;0.20;;;0.10;;
70967;SDS011;58629;48.808;8.820;2023-12-20T01:18:59;0.10;;;0.00;;
70967;SDS011;58629;48.808;8.820;2023-12-20T01:21:25;0.20;;;0.10;;
70967;SDS011;58629;48.808;8.820;2023-12-20T01:23:50;0.23;;;0.00;;
70967;SDS011;58629;48.808;8.820;2023-12-20T01:26:16;0.00;;;0.00;;
70967;SDS011;58629;48.808;8.820;2023-12-20T01:28:41;0.10;;;0.00;;
70967;SDS011;58629;48.808;8.820;2023-12-20T01:31:07;0.10;;;0.00;;
70967;SDS011;58629;48.808;8.820;2023-12-20T01:33:33;0.00;;;0.00;;
70967;SDS011;58629;48.808;8.820;2023-12-20T01:35:58;0.00;;;0.00;;
70967;SDS011;58629;48.808;8.820;2023-12-20T01:38:24;0.10;;;0.00;;
70967;SDS011;58629;48.808;8.820;2023-12-20T01:40:49;0.47;;;0.00;;
70967;SDS011;58629;48.808;8.820;2023-12-20T01:43:15;0.00;;;0.00;;
70967;SDS011;58629;48.808;8.820;2023-12-20T01:45:40;0.00;;;0.00;;
70967;SDS011;58629;48.808;8.820;2023-12-20T01:48:06;0.00;;;0.00;;
70967;SDS011;58629;48.808;8.820;2023-12-20T01:50:33;0.10;;;0.00;;
70967;SDS011;58629;48.808;8.820;2023-12-20T01:53:01;0.00;;;0.00;;
70967;SDS011;58629;48.808;8.820;2023-12-20T01:55:27;0.10;;;0.00;;
70967;SDS011;58629;48.808;8.820;2023-12-20T01:57:55;0.00;;;0.00;;
70967;SDS011;58629;48.808;8.820;2023-12-20T02:00:23;0.00;;;0.00;;
70967;SDS011;58629;48.808;8.820;2023-12-20T02:02:51;0.60;;;0.00;;
70967;SDS011;58629;48.808;8.820;2023-12-20T02:05:18;0.03;;;0.00;;
70967;SDS011;58629;48.808;8.820;2023-12-20T02:07:44;0.00;;;0.00;;
70967;SDS011;58629;48.808;8.820;2023-12-20T02:10:09;0.10;;;0.00;;
70967;SDS011;58629;48.808;8.820;2023-12-20T02:12:35;0.75;;;0.10;;
70967;SDS011;58629;48.808;8.820;2023-12-20T02:15:00;0.13;;;0.00;;
70967;SDS011;58629;48.808;8.820;2023-12-20T02:17:26;0.00;;;0.00;;
70967;SDS011;58629;48.808;8.820;2023-12-20T02:19:52;0.00;;;0.00;;
70967;SDS011;58629;48.808;8.820;2023-12-20T02:22:18;0.00;;;0.00;;
70967;SDS011;58629;48.808;8.820;2023-12-20T02:24:43;0.00;;;0.00;;
70967;SDS011;58629;48.808;8.820;2023-12-20T02:27:08;0.10;;;0.00;;
70967;SDS011;58629;48.808;8.820;2023-12-20T02:29:34;0.00;;;0.00;;
70967;SDS011;58629;48.808;8.820;2023-12-20T02:32:00;0.10;;;0.00;;
70967;SDS011;58629;48.808;8.820;2023-12-20T02:34:26;0.00;;;0.00;;
70967;SDS011;58629;48.808;8.820;2023-12-20T02:36:51;0.00;;;0.00;;
70967;SDS011;58629;48.808;8.820;2023-12-20T02:39:17;0.10;;;0.00;;
70967;SDS011;58629;48.808;8.820;2023-12-20T02:41:44;0.27;;;0.00;;
70967;SDS011;58629;48.808;8.820;2023-12-20T02:44:09;0.08;;;0.00;;
70967;SDS011;58629;48.808;8.820;2023-12-20T02:46:34;0.20;;;0.00;;
70967;SDS011;58629;48.808;8.820;2023-12-20T02:49:00;0.00;;;0.00;;
70967;SDS011;58629;48.808;8.820;2023-12-20T02:51:25;0.00;;;0.00;;
70967;SDS011;58629;48.808;8.820;2023-12-20T02:53:51;0.10;;;0.00;;
70967;SDS011;58629;48.808;8.820;2023-12-20T02:56:16;0.10;;;0.00;;
70967;SDS011;58629;48.808;8.820;2023-12-20T02:58:41;0.00;;;0.00;;
70967;SDS011;58629;48.808;8.820;2023-12-20T03:01:07;0.00;;;0.00;;
70967;SDS011;58629;48.808;8.820;2023-12-20T03:03:32;0.10;;;0.00;;
70967;SDS011;58629;48.808;8.820;2023-12-20T03:05:58;0.00;;;0.00;;
70967;SDS011;58629;48.808;8.820;2023-12-20T03:08:23;0.10;;;0.00;;
70967;SDS011;58629;48.808;8.820;2023-12-20T03:10:49;0.20;;;0.00;;
70967;SDS011;58629;48.808;8.820;2023-12-20T03:13:15;0.10;;;0.00;;
70967;SDS011;58629;48.808;8.820;2023-12-20T03:15:40;0.05;;;0.00;;
70967;SDS011;58629;48.808;8.820;2023-12-20T03:18:05;0.00;;;0.00;;
70967;SDS011;58629;48.808;8.820;2023-12-20T03:20:31;0.10;;;0.00;;
70967;SDS011;58629;48.808;8.820;2023-12-20T03:22:59;0.00;;;0.00;;
70967;SDS011;58629;48.808;8.820;2023-12-20T03:25:27;0.00;;;0.00;;
70967;SDS011;58629;48.808;8.820;2023-12-20T03:27:52;0.40;;;0.00;;
70967;SDS011;58629;48.808;8.820;2023-12-20T03:30:18;0.10;;;0.00;;
70967;SDS011;58629;48.808;8.820;2023-12-20T03:32:44;0.10;;;0.00;;
70967;SDS011;58629;48.808;8.820;2023-12-20T03:35:10;0.00;;;0.00;;
70967;SDS011;58629;48.808;8.820;2023-12-20T03:37:35;0.20;;;0.00;;
70967;SDS011;58629;48.808;8.820;2023-12-20T03:40:01;0.00;;;0.00;;
70967;SDS011;58629;48.808;8.820;2023-12-20T03:42:27;1.35;;;0.00;;
70967;SDS011;58629;48.808;8.820;2023-12-20T03:44:52;0.03;;;0.00;;
70967;SDS011;58629;48.808;8.820;2023-12-20T03:47:18;0.00;;;0.00;;
70967;SDS011;58629;48.808;8.820;2023-12-20T03:49:43;0.07;;;0.00;;
70967;SDS011;58629;48.808;8.820;2023-12-20T03:52:08;0.10;;;0.00;;
70967;SDS011;58629;48.808;8.820;2023-12-20T03:54:37;0.10;;;0.00;;
70967;SDS011;58629;48.808;8.820;2023-12-20T03:57:02;0.00;;;0.00;;
70967;SDS011;58629;48.808;8.820;2023-12-20T03:59:28;0.22;;;0.00;;
70967;SDS011;58629;48.808;8.820;2023-12-20T04:01:53;0.53;;;0.00;;
70967;SDS011;58629;48.808;8.820;2023-12-20T04:04:19;0.00;;;0.00;;
70967;SDS011;58629;48.808;8.820;2023-12-20T04:06:44;0.07;;;0.00;;
70967;SDS011;58629;48.808;8.820;2023-12-20T04:09:10;0.00;;;0.00;;
70967;SDS011;58629;48.808;8.820;2023-12-20T04:11:36;0.03;;;0.00;;
70967;SDS011;58629;48.808;8.820;2023-12-20T04:14:01;0.10;;;0.00;;
70967;SDS011;58629;48.808;8.820;2023-12-20T04:16:27;0.00;;;0.00;;
70967;SDS011;58629;48.808;8.820;2023-12-20T04:18:52;0.00;;;0.00;;
70967;SDS011;58629;48.808;8.820;2023-12-20T04:21:17;0.00;;;0.00;;
70967;SDS011;58629;48.808;8.820;2023-12-20T04:23:43;0.10;;;0.00;;
70967;SDS011;58629;48.808;8.820;2023-12-20T04:26:08;0.20;;;0.00;;
70967;SDS011;58629;48.808;8.820;2023-12-20T04:28:34;0.00;;;0.00;;
70967;SDS011;58629;48.808;8.820;2023-12-20T04:30:59;0.20;;;0.00;;
70967;SDS011;58629;48.808;8.820;2023-12-20T04:33:24;0.53;;;0.00;;
70967;SDS011;58629;48.808;8.820;2023-12-20T04:35:50;0.00;;;0.00;;
70967;SDS011;58629;48.808;8.820;2023-12-20T04:38:16;0.20;;;0.00;;
70967;SDS011;58629;48.808;8.820;2023-12-20T04:40:41;0.07;;;0.00;;
70967;SDS011;58629;48.808;8.820;2023-12-20T04:43:07;0.00;;;0.00;;
70967;SDS011;58629;48.808;8.820;2023-12-20T04:45:33;0.00;;;0.00;;
70967;SDS011;58629;48.808;8.820;2023-12-20T04:47:59;0.47;;;0.00;;
70967;SDS011;58629;48.808;8.820;2023-12-20T04:50:24;0.00;;;0.00;;
70967;SDS011;58629;48.808;8.820;2023-12-20T04:52:50;0.10;;;0.00;;
70967;SDS011;58629;48.808;8.820;2023-12-20T04:55:16;0.10;;;0.00;;
70967;SDS011;58629;48.808;8.820;2023-12-20T04:57:41;0.20;;;0.00;;
70967;SDS011;58629;48.808;8.820;2023-12-20T05:00:08;0.52;;;0.00;;
70967;SDS011;58629;48.808;8.820;2023-12-20T05:02:34;0.00;;;0.00;;
70967;SDS011;58629;48.808;8.820;2023-12-20T05:05:00;0.43;;;0.00;;
70967;SDS011;58629;48.808;8.820;2023-12-20T05:07:25;0.23;;;0.00;;
70967;SDS011;58629;48.808;8.820;2023-12-20T05:09:51;0.30;;;0.00;;
70967;SDS011;58629;48.808;8.820;2023-12-20T05:12:16;0.23;;;0.10;;
70967;SDS011;58629;48.808;8.820;2023-12-20T05:14:41;0.30;;;0.10;;
70967;SDS011;58629;48.808;8.820;2023-12-20T05:17:07;0.10;;;0.00;;
70967;SDS011;58629;48.808;8.820;2023-12-20T05:19:32;0.10;;;0.00;;
70967;SDS011;58629;48.808;8.820;2023-12-20T05:22:00;0.10;;;0.00;;
70967;SDS011;58629;48.808;8.820;2023-12-20T05:24:26;0.20;;;0.00;;
70967;SDS011;58629;48.808;8.820;2023-12-20T05:26:51;0.27;;;0.00;;
70967;SDS011;58629;48.808;8.820;2023-12-20T05:29:17;0.15;;;0.03;;
70967;SDS011;58629;48.808;8.820;2023-12-20T05:31:42;0.20;;;0.00;;
70967;SDS011;58629;48.808;8.820;2023-12-20T05:34:08;0.17;;;0.00;;
70967;SDS011;58629;48.808;8.820;2023-12-20T05:36:33;0.10;;;0.10;;
70967;SDS011;58629;48.808;8.820;2023-12-20T05:38:59;0.90;;;0.10;;
70967;SDS011;58629;48.808;8.820;2023-12-20T05:41:24;0.47;;;0.20;;
70967;SDS011;58629;48.808;8.820;2023-12-20T05:43:49;1.30;;;0.10;;
70967;SDS011;58629;48.808;8.820;2023-12-20T05:46:15;0.27;;;0.10;;
70967;SDS011;58629;48.808;8.820;2023-12-20T05:48:40;0.43;;;0.20;;
70967;SDS011;58629;48.808;8.820;2023-12-20T05:51:05;0.50;;;0.23;;
70967;SDS011;58629;48.808;8.820;2023-12-20T05:53:31;0.20;;;0.07;;
70967;SDS011;58629;48.808;8.820;2023-12-20T05:55:56;1.80;;;0.00;;
70967;SDS011;58629;48.808;8.820;2023-12-20T05:58:21;0.67;;;0.10;;
70967;SDS011;58629;48.808;8.820;2023-12-20T06:00:47;0.40;;;0.10;;
70967;SDS011;58629;48.808;8.820;2023-12-20T06:03:13;0.43;;;0.20;;
70967;SDS011;58629;48.808;8.820;2023-12-20T06:05:39;0.10;;;0.00;;
70967;SDS011;58629;48.808;8.820;2023-12-20T06:08:04;0.30;;;0.20;;
70967;SDS011;58629;48.808;8.820;2023-12-20T06:10:31;0.40;;;0.10;;
70967;SDS011;58629;48.808;8.820;2023-12-20T06:12:56;0.85;;;0.10;;
70967;SDS011;58629;48.808;8.820;2023-12-20T06:15:23;0.20;;;0.10;;
70967;SDS011;58629;48.808;8.820;2023-12-20T06:17:49;0.22;;;0.08;;
70967;SDS011;58629;48.808;8.820;2023-12-20T06:20:14;0.30;;;0.03;;
70967;SDS011;58629;48.808;8.820;2023-12-20T06:22:40;0.10;;;0.00;;
70967;SDS011;58629;48.808;8.820;2023-12-20T06:25:05;0.10;;;0.00;;
70967;SDS011;58629;48.808;8.820;2023-12-20T06:27:32;0.93;;;0.00;;
70967;SDS011;58629;48.808;8.820;2023-12-20T06:29:57;0.10;;;0.00;;
70967;SDS011;58629;48.808;8.820;2023-12-20T06:32:24;0.20;;;0.00;;
70967;SDS011;58629;48.808;8.820;2023-12-20T06:34:49;0.00;;;0.00;;
70967;SDS011;58629;48.808;8.820;2023-12-20T06:37:15;0.17;;;0.00;;
70967;SDS011;58629;48.808;8.820;2023-12-20T06:39:40;0.30;;;0.00;;
70967;SDS011;58629;48.808;8.820;2023-12-20T06:42:06;0.30;;;0.10;;
70967;SDS011;58629;48.808;8.820;2023-12-20T06:44:31;0.43;;;0.20;;
70967;SDS011;58629;48.808;8.820;2023-12-20T06:46:57;0.47;;;0.27;;
70967;SDS011;58629;48.808;8.820;2023-12-20T06:49:23;0.63;;;0.40;;
70967;SDS011;58629;48.808;8.820;2023-12-20T06:51:48;0.87;;;0.40;;
70967;SDS011;58629;48.808;8.820;2023-12-20T06:54:13;0.70;;;0.40;;
70967;SDS011;58629;48.808;8.820;2023-12-20T06:56:39;1.10;;;0.70;;
70967;SDS011;58629;48.808;8.820;2023-12-20T06:59:04;1.20;;;0.77;;
70967;SDS011;58629;48.808;8.820;2023-12-20T07:01:30;1.48;;;0.93;;
70967;SDS011;58629;48.808;8.820;2023-12-20T07:03:55;1.40;;;1.00;;
70967;SDS011;58629;48.808;8.820;2023-12-20T07:06:20;1.83;;;1.20;;
70967;SDS011;58629;48.808;8.820;2023-12-20T07:08:46;2.70;;;1.33;;
70967;SDS011;58629;48.808;8.820;2023-12-20T07:11:11;3.60;;;1.73;;
70967;SDS011;58629;48.808;8.820;2023-12-20T07:13:37;3.07;;;1.63;;
70967;SDS011;58629;48.808;8.820;2023-12-20T07:16:02;3.33;;;2.20;;
70967;SDS011;58629;48.808;8.820;2023-12-20T07:18:28;3.70;;;2.30;;
70967;SDS011;58629;48.808;8.820;2023-12-20T07:20:53;3.40;;;2.10;;
70967;SDS011;58629;48.808;8.820;2023-12-20T07:23:19;3.58;;;2.00;;
70967;SDS011;58629;48.808;8.820;2023-12-20T07:25:45;3.72;;;1.85;;
70967;SDS011;58629;48.808;8.820;2023-12-20T07:28:10;3.22;;;1.95;;
70967;SDS011;58629;48.808;8.820;2023-12-20T07:30:36;4.40;;;2.27;;
70967;SDS011;58629;48.808;8.820;2023-12-20T07:33:01;6.00;;;2.20;;
70967;SDS011;58629;48.808;8.820;2023-12-20T07:35:27;4.65;;;2.30;;
70967;SDS011;58629;48.808;8.820;2023-12-20T07:37:53;4.87;;;2.37;;
70967;SDS011;58629;48.808;8.820;2023-12-20T07:40:18;3.90;;;2.13;;
70967;SDS011;58629;48.808;8.820;2023-12-20T07:42:43;4.80;;;2.40;;
70967;SDS011;58629;48.808;8.820;2023-12-20T07:45:09;4.53;;;2.50;;
70967;SDS011;58629;48.808;8.820;2023-12-20T07:47:35;4.00;;;2.33;;
70967;SDS011;58629;48.808;8.820;2023-12-20T07:50:01;3.85;;;2.30;;
70967;SDS011;58629;48.808;8.820;2023-12-20T07:52:27;4.13;;;2.20;;
70967;SDS011;58629;48.808;8.820;2023-12-20T07:54:53;3.92;;;2.20;;
70967;SDS011;58629;48.808;8.820;2023-12-20T07:57:19;4.60;;;2.37;;
70967;SDS011;58629;48.808;8.820;2023-12-20T07:59:44;3.70;;;2.03;;
70967;SDS011;58629;48.808;8.820;2023-12-20T08:02:10;4.10;;;2.10;;
70967;SDS011;58629;48.808;8.820;2023-12-20T08:04:35;5.23;;;2.40;;
70967;SDS011;58629;48.808;8.820;2023-12-20T08:07:00;3.93;;;2.40;;
70967;SDS011;58629;48.808;8.820;2023-12-20T08:09:26;4.27;;;2.13;;
70967;SDS011;58629;48.808;8.820;2023-12-20T08:11:51;3.43;;;2.10;;
70967;SDS011;58629;48.808;8.820;2023-12-20T08:14:16;3.70;;;2.10;;
70967;SDS011;58629;48.808;8.820;2023-12-20T08:16:42;3.00;;;1.80;;
70967;SDS011;58629;48.808;8.820;2023-12-20T08:19:07;3.70;;;2.15;;
70967;SDS011;58629;48.808;8.820;2023-12-20T08:21:33;4.57;;;2.10;;
70967;SDS011;58629;48.808;8.820;2023-12-20T08:23:59;3.37;;;2.20;;
70967;SDS011;58629;48.808;8.820;2023-12-20T08:26:25;3.38;;;2.20;;
70967;SDS011;58629;48.808;8.820;2023-12-20T08:28:51;5.15;;;2.20;;
70967;SDS011;58629;48.808;8.820;2023-12-20T08:31:17;3.97;;;2.13;;
70967;SDS011;58629;48.808;8.820;2023-12-20T08:33:47;2.65;;;1.80;;
70967;SDS011;58629;48.808;8.820;2023-12-20T08:36:13;3.67;;;1.90;;
70967;SDS011;58629;48.808;8.820;2023-12-20T08:38:39;3.27;;;1.60;;
70967;SDS011;58629;48.808;8.820;2023-12-20T08:41:04;2.63;;;1.60;;
70967;SDS011;58629;48.808;8.820;2023-12-20T08:43:30;2.40;;;1.40;;
70967;SDS011;58629;48.808;8.820;2023-12-20T08:45:56;3.78;;;2.00;;
70967;SDS011;58629;48.808;8.820;2023-12-20T08:48:22;3.20;;;1.57;;
70967;SDS011;58629;48.808;8.820;2023-12-20T08:50:47;3.73;;;1.40;;
70967;SDS011;58629;48.808;8.820;2023-12-20T08:53:14;3.00;;;1.30;;
70967;SDS011;58629;48.808;8.820;2023-12-20T08:55:41;2.70;;;1.13;;
70967;SDS011;58629;48.808;8.820;2023-12-20T08:58:06;3.50;;;1.17;;
70967;SDS011;58629;48.808;8.820;2023-12-20T09:00:33;4.00;;;1.23;;
70967;SDS011;58629;48.808;8.820;2023-12-20T09:02:59;3.70;;;1.00;;
70967;SDS011;58629;48.808;8.820;2023-12-20T09:05:24;4.50;;;1.00;;
70967;SDS011;58629;48.808;8.820;2023-12-20T09:07:50;2.13;;;0.80;;
70967;SDS011;58629;48.808;8.820;2023-12-20T09:10:15;2.53;;;0.73;;
70967;SDS011;58629;48.808;8.820;2023-12-20T09:12:41;4.07;;;1.00;;
70967;SDS011;58629;48.808;8.820;2023-12-20T09:15:07;4.40;;;1.00;;
70967;SDS011;58629;48.808;8.820;2023-12-20T09:17:33;5.60;;;0.80;;
70967;SDS011;58629;48.808;8.820;2023-12-20T09:19:58;3.45;;;0.90;;
70967;SDS011;58629;48.808;8.820;2023-12-20T09:22:25;2.65;;;0.80;;
70967;SDS011;58629;48.808;8.820;2023-12-20T09:24:50;2.47;;;0.70;;
70967;SDS011;58629;48.808;8.820;2023-12-20T09:27:16;2.33;;;0.87;;
70967;SDS011;58629;48.808;8.820;2023-12-20T09:29:41;3.60;;;0.83;;
70967;SDS011;58629;48.808;8.820;2023-12-20T09:32:06;2.83;;;0.70;;
70967;SDS011;58629;48.808;8.820;2023-12-20T09:34:32;3.95;;;1.10;;
70967;SDS011;58629;48.808;8.820;2023-12-20T09:36:58;3.78;;;1.00;;
70967;SDS011;58629;48.808;8.820;2023-12-20T09:39:23;2.80;;;0.90;;
70967;SDS011;58629;48.808;8.820;2023-12-20T09:41:51;4.37;;;1.00;;
70967;SDS011;58629;48.808;8.820;2023-12-20T09:44:18;1.98;;;1.00;;
70967;SDS011;58629;48.808;8.820;2023-12-20T09:46:45;1.57;;;0.83;;
70967;SDS011;58629;48.808;8.820;2023-12-20T09:49:14;4.05;;;1.00;;
70967;SDS011;58629;48.808;8.820;2023-12-20T09:51:43;3.10;;;0.90;;
70967;SDS011;58629;48.808;8.820;2023-12-20T09:54:11;6.57;;;1.30;;
70967;SDS011;58629;48.808;8.820;2023-12-20T09:56:41;3.08;;;1.10;;
70967;SDS011;58629;48.808;8.820;2023-12-20T09:59:07;4.47;;;1.20;;
70967;SDS011;58629;48.808;8.820;2023-12-20T10:01:33;3.38;;;1.20;;
70967;SDS011;58629;48.808;8.820;2023-12-20T10:04:00;3.13;;;1.08;;
70967;SDS011;58629;48.808;8.820;2023-12-20T10:06:28;5.80;;;1.30;;
70967;SDS011;58629;48.808;8.820;2023-12-20T10:08:54;2.88;;;1.20;;
70967;SDS011;58629;48.808;8.820;2023-12-20T10:11:19;2.65;;;1.20;;
70967;SDS011;58629;48.808;8.820;2023-12-20T10:13:44;4.73;;;1.40;;
70967;SDS011;58629;48.808;8.820;2023-12-20T10:16:13;3.77;;;1.30;;
70967;SDS011;58629;48.808;8.820;2023-12-20T10:18:38;2.88;;;1.30;;
70967;SDS011;58629;48.808;8.820;2023-12-20T10:21:04;4.40;;;1.10;;
70967;SDS011;58629;48.808;8.820;2023-12-20T10:23:31;3.55;;;1.20;;
70967;SDS011;58629;48.808;8.820;2023-12-20T10:25:57;3.20;;;1.20;;
70967;SDS011;58629;48.808;8.820;2023-12-20T10:28:23;2.30;;;1.00;;
70967;SDS011;58629;48.808;8.820;2023-12-20T10:30:52;3.88;;;1.17;;
70967;SDS011;58629;48.808;8.820;2023-12-20T10:33:24;4.07;;;1.13;;
70967;SDS011;58629;48.808;8.820;2023-12-20T10:35:51;3.88;;;1.20;;
70967;SDS011;58629;48.808;8.820;2023-12-20T10:38:17;2.85;;;0.90;;
70967;SDS011;58629;48.808;8.820;2023-12-20T10:40:43;1.67;;;0.80;;
70967;SDS011;58629;48.808;8.820;2023-12-20T10:43:10;3.03;;;0.95;;
70967;SDS011;58629;48.808;8.820;2023-12-20T10:45:36;3.10;;;1.10;;
70967;SDS011;58629;48.808;8.820;2023-12-20T10:48:02;3.05;;;1.20;;
70967;SDS011;58629;48.808;8.820;2023-12-20T10:50:28;3.63;;;1.00;;
70967;SDS011;58629;48.808;8.820;2023-12-20T10:52:55;3.85;;;1.23;;
70967;SDS011;58629;48.808;8.820;2023-12-20T10:55:23;6.93;;;1.40;;
70967;SDS011;58629;48.808;8.820;2023-12-20T10:57:54;4.57;;;1.20;;
70967;SDS011;58629;48.808;8.820;2023-12-20T11:00:26;4.30;;;1.10;;
70967;SDS011;58629;48.808;8.820;2023-12-20T11:02:52;2.33;;;1.00;;
70967;SDS011;58629;48.808;8.820;2023-12-20T11:07:55;5.47;;;1.23;;
70967;SDS011;58629;48.808;8.820;2023-12-20T11:10:34;4.55;;;1.00;;
70967;SDS011;58629;48.808;8.820;2023-12-20T11:15:48;2.22;;;1.00;;
70967;SDS011;58629;48.808;8.820;2023-12-20T11:18:14;3.05;;;0.88;;
70967;SDS011;58629;48.808;8.820;2023-12-20T11:20:40;4.13;;;0.97;;
70967;SDS011;58629;48.808;8.820;2023-12-20T11:23:07;2.80;;;0.98;;
70967;SDS011;58629;48.808;8.820;2023-12-20T11:25:52;3.17;;;1.00;;
70967;SDS011;58629;48.808;8.820;2023-12-20T11:28:23;4.03;;;1.10;;
70967;SDS011;58629;48.808;8.820;2023-12-20T11:30:50;4.87;;;1.27;;
70967;SDS011;58629;48.808;8.820;2023-12-20T11:33:24;3.55;;;1.00;;
70967;SDS011;58629;48.808;8.820;2023-12-20T11:36:01;3.70;;;1.33;;
70967;SDS011;58629;48.808;8.820;2023-12-20T11:38:27;4.97;;;1.33;;
70967;SDS011;58629;48.808;8.820;2023-12-20T11:41:00;4.82;;;1.20;;
70967;SDS011;58629;48.808;8.820;2023-12-20T11:43:38;3.00;;;1.20;;
70967;SDS011;58629;48.808;8.820;2023-12-20T11:46:08;2.85;;;1.08;;
70967;SDS011;58629;48.808;8.820;2023-12-20T11:48:35;3.88;;;1.20;;
70967;SDS011;58629;48.808;8.820;2023-12-20T11:51:02;3.30;;;1.00;;
70967;SDS011;58629;48.808;8.820;2023-12-20T11:53:29;3.60;;;0.98;;
70967;SDS011;58629;48.808;8.820;2023-12-20T11:55:56;3.27;;;1.03;;
70967;SDS011;58629;48.808;8.820;2023-12-20T11:58:21;3.80;;;0.90;;
70967;SDS011;58629;48.808;8.820;2023-12-20T12:00:48;6.80;;;1.20;;
70967;SDS011;58629;48.808;8.820;2023-12-20T12:03:14;2.92;;;1.05;;
70967;SDS011;58629;48.808;8.820;2023-12-20T12:05:40;4.43;;;1.00;;
70967;SDS011;58629;48.808;8.820;2023-12-20T12:08:06;4.07;;;1.00;;
70967;SDS011;58629;48.808;8.820;2023-12-20T12:10:32;3.72;;;1.10;;
70967;SDS011;58629;48.808;8.820;2023-12-20T12:12:58;3.07;;;1.03;;
70967;SDS011;58629;48.808;8.820;2023-12-20T12:15:23;4.72;;;0.90;;
70967;SDS011;58629;48.808;8.820;2023-12-20T12:17:53;4.55;;;1.10;;
70967;SDS011;58629;48.808;8.820;2023-12-20T12:20:20;2.97;;;0.90;;
70967;SDS011;58629;48.808;8.820;2023-12-20T12:22:45;2.97;;;0.90;;
70967;SDS011;58629;48.808;8.820;2023-12-20T12:25:15;2.97;;;0.82;;
70967;SDS011;58629;48.808;8.820;2023-12-20T12:27:41;2.97;;;0.75;;
70967;SDS011;58629;48.808;8.820;2023-12-20T12:30:07;2.83;;;0.90;;
70967;SDS011;58629;48.808;8.820;2023-12-20T12:32:34;3.70;;;0.80;;
70967;SDS011;58629;48.808;8.820;2023-12-20T12:35:00;3.80;;;0.90;;
70967;SDS011;58629;48.808;8.820;2023-12-20T12:37:28;3.03;;;1.00;;
70967;SDS011;58629;48.808;8.820;2023-12-20T12:39:53;3.08;;;1.00;;
70967;SDS011;58629;48.808;8.820;2023-12-20T12:42:19;4.83;;;0.83;;
70967;SDS011;58629;48.808;8.820;2023-12-20T12:44:46;3.97;;;1.00;;
70967;SDS011;58629;48.808;8.820;2023-12-20T12:47:12;3.10;;;0.80;;
70967;SDS011;58629;48.808;8.820;2023-12-20T12:49:37;2.15;;;0.90;;
70967;SDS011;58629;48.808;8.820;2023-12-20T12:52:03;2.50;;;0.80;;
70967;SDS011;58629;48.808;8.820;2023-12-20T12:54:28;3.00;;;0.85;;
70967;SDS011;58629;48.808;8.820;2023-12-20T12:56:53;3.83;;;0.80;;
70967;SDS011;58629;48.808;8.820;2023-12-20T12:59:19;4.80;;;0.90;;
70967;SDS011;58629;48.808;8.820;2023-12-20T13:01:44;3.87;;;0.80;;
70967;SDS011;58629;48.808;8.820;2023-12-20T13:04:10;3.93;;;1.07;;
70967;SDS011;58629;48.808;8.820;2023-12-20T13:06:38;2.53;;;0.65;;
70967;SDS011;58629;48.808;8.820;2023-12-20T13:09:04;3.23;;;0.77;;
70967;SDS011;58629;48.808;8.820;2023-12-20T13:11:30;2.28;;;0.60;;
70967;SDS011;58629;48.808;8.820;2023-12-20T13:13:56;1.90;;;0.70;;
70967;SDS011;58629;48.808;8.820;2023-12-20T13:16:22;3.13;;;0.70;;
70967;SDS011;58629;48.808;8.820;2023-12-20T13:18:49;1.60;;;0.53;;
70967;SDS011;58629;48.808;8.820;2023-12-20T13:21:14;2.10;;;0.80;;
70967;SDS011;58629;48.808;8.820;2023-12-20T13:23:39;5.33;;;0.80;;
70967;SDS011;58629;48.808;8.820;2023-12-20T13:26:05;4.00;;;0.70;;
70967;SDS011;58629;48.808;8.820;2023-12-20T13:28:30;2.37;;;0.80;;
70967;SDS011;58629;48.808;8.820;2023-12-20T13:30:56;3.10;;;0.80;;
70967;SDS011;58629;48.808;8.820;2023-12-20T13:33:21;2.60;;;0.77;;
70967;SDS011;58629;48.808;8.820;2023-12-20T13:35:46;4.50;;;0.77;;
70967;SDS011;58629;48.808;8.820;2023-12-20T13:38:12;4.17;;;0.80;;
70967;SDS011;58629;48.808;8.820;2023-12-20T13:40:39;2.63;;;0.70;;
70967;SDS011;58629;48.808;8.820;2023-12-20T13:43:04;3.10;;;0.80;;
70967;SDS011;58629;48.808;8.820;2023-12-20T13:45:29;2.80;;;0.80;;
70967;SDS011;58629;48.808;8.820;2023-12-20T13:47:55;2.90;;;0.87;;
70967;SDS011;58629;48.808;8.820;2023-12-20T13:50:20;2.20;;;0.70;;
70967;SDS011;58629;48.808;8.820;2023-12-20T13:52:46;3.30;;;0.80;;
70967;SDS011;58629;48.808;8.820;2023-12-20T13:55:12;2.95;;;0.70;;
70967;SDS011;58629;48.808;8.820;2023-12-20T13:57:37;3.10;;;0.88;;
70967;SDS011;58629;48.808;8.820;2023-12-20T14:00:03;3.97;;;0.70;;
70967;SDS011;58629;48.808;8.820;2023-12-20T14:02:30;3.17;;;0.80;;
70967;SDS011;58629;48.808;8.820;2023-12-20T14:04:55;1.45;;;0.80;;
70967;SDS011;58629;48.808;8.820;2023-12-20T14:07:20;3.37;;;1.00;;
70967;SDS011;58629;48.808;8.820;2023-12-20T14:09:46;2.50;;;0.90;;
70967;SDS011;58629;48.808;8.820;2023-12-20T14:12:11;2.87;;;0.73;;
70967;SDS011;58629;48.808;8.820;2023-12-20T14:14:37;2.50;;;0.82;;
70967;SDS011;58629;48.808;8.820;2023-12-20T14:17:03;5.50;;;1.10;;
70967;SDS011;58629;48.808;8.820;2023-12-20T14:19:29;3.40;;;1.02;;
70967;SDS011;58629;48.808;8.820;2023-12-20T14:21:54;3.27;;;0.90;;
70967;SDS011;58629;48.808;8.820;2023-12-20T14:24:20;3.85;;;0.95;;
70967;SDS011;58629;48.808;8.820;2023-12-20T14:26:45;4.40;;;0.80;;
70967;SDS011;58629;48.808;8.820;2023-12-20T14:29:10;3.77;;;0.77;;
70967;SDS011;58629;48.808;8.820;2023-12-20T14:31:36;3.73;;;0.70;;
70967;SDS011;58629;48.808;8.820;2023-12-20T14:34:03;4.45;;;0.70;;
70967;SDS011;58629;48.808;8.820;2023-12-20T14:36:29;2.90;;;0.70;;
70967;SDS011;58629;48.808;8.820;2023-12-20T14:38:56;2.85;;;0.80;;
70967;SDS011;58629;48.808;8.820;2023-12-20T14:41:24;3.17;;;0.98;;
70967;SDS011;58629;48.808;8.820;2023-12-20T14:43:53;2.63;;;0.87;;
70967;SDS011;58629;48.808;8.820;2023-12-20T14:46:18;3.15;;;1.00;;